sensor_id;sensor_type;location;lat;lon;timestamp;pressure;altitude;pressure_sealevel;temperature
74539;BMP180;66042;51.090;-115.340;2023-01-26T00:01:27;87377.80;;;0.50
74539;BMP180;66042;51.090;-115.340;2023-01-26T00:03:55;87385.00;;;0.40
74539;BMP180;66042;51.090;-115.340;2023-01-26T00:06:23;87389.20;;;0.30
74539;BMP180;66042;51.090;-115.340;2023-01-26T00:08:53;87383.20;;;0.20
74539;BMP180;66042;51.090;-115.340;2023-01-26T00:11:24;87384.20;;;0.02
74539;BMP180;66042;51.090;-115.340;2023-01-26T00:13:54;87388.60;;;-0.10
74539;BMP180;66042;51.090;-115.340;2023-01-26T00:16:20;87385.20;;;-0.10
74539;BMP180;66042;51.090;-115.340;2023-01-26T00:18:47;87384.00;;;-0.20
74539;BMP180;66042;51.090;-115.340;2023-01-26T00:21:18;87395.20;;;-0.20
74539;BMP180;66042;51.090;-115.340;2023-01-26T00:23:47;87392.40;;;-0.30
74539;BMP180;66042;51.090;-115.340;2023-01-26T00:26:19;87396.00;;;-0.32
74539;BMP180;66042;51.090;-115.340;2023-01-26T00:28:47;87390.60;;;-0.40
74539;BMP180;66042;51.090;-115.340;2023-01-26T00:31:16;87389.20;;;-0.60
74539;BMP180;66042;51.090;-115.340;2023-01-26T00:33:44;87390.60;;;-0.60
74539;BMP180;66042;51.090;-115.340;2023-01-26T00:36:12;87393.40;;;-0.62
74539;BMP180;66042;51.090;-115.340;2023-01-26T00:38:40;87386.80;;;-0.70
74539;BMP180;66042;51.090;-115.340;2023-01-26T00:41:08;87385.40;;;-0.72
74539;BMP180;66042;51.090;-115.340;2023-01-26T00:43:55;87379.20;;;-0.90
74539;BMP180;66042;51.090;-115.340;2023-01-26T00:46:24;87390.80;;;-1.00
74539;BMP180;66042;51.090;-115.340;2023-01-26T00:48:51;87392.40;;;-1.00
74539;BMP180;66042;51.090;-115.340;2023-01-26T00:51:18;87398.60;;;-1.06
74539;BMP180;66042;51.090;-115.340;2023-01-26T00:53:45;87392.60;;;-1.10
74539;BMP180;66042;51.090;-115.340;2023-01-26T00:56:12;87397.60;;;-1.18
74539;BMP180;66042;51.090;-115.340;2023-01-26T00:58:40;87396.00;;;-1.20
74539;BMP180;66042;51.090;-115.340;2023-01-26T01:01:08;87389.20;;;-1.30
74539;BMP180;66042;51.090;-115.340;2023-01-26T01:03:35;87396.60;;;-1.30
74539;BMP180;66042;51.090;-115.340;2023-01-26T01:06:02;87394.20;;;-1.40
74539;BMP180;66042;51.090;-115.340;2023-01-26T01:08:29;87397.60;;;-1.40
74539;BMP180;66042;51.090;-115.340;2023-01-26T01:11:05;87401.20;;;-1.50
74539;BMP180;66042;51.090;-115.340;2023-01-26T01:13:33;87407.00;;;-1.50
74539;BMP180;66042;51.090;-115.340;2023-01-26T01:15:59;87410.60;;;-1.60
74539;BMP180;66042;51.090;-115.340;2023-01-26T01:18:30;87407.80;;;-1.60
74539;BMP180;66042;51.090;-115.340;2023-01-26T01:20:57;87409.80;;;-1.70
74539;BMP180;66042;51.090;-115.340;2023-01-26T01:23:27;87409.20;;;-1.70
74539;BMP180;66042;51.090;-115.340;2023-01-26T01:25:59;87417.00;;;-1.80
74539;BMP180;66042;51.090;-115.340;2023-01-26T01:28:27;87412.80;;;-1.80
74539;BMP180;66042;51.090;-115.340;2023-01-26T01:30:54;87413.80;;;-1.80
74539;BMP180;66042;51.090;-115.340;2023-01-26T01:33:23;87415.80;;;-1.80
74539;BMP180;66042;51.090;-115.340;2023-01-26T01:36:06;87418.20;;;-1.80
74539;BMP180;66042;51.090;-115.340;2023-01-26T01:38:34;87421.20;;;-1.80
74539;BMP180;66042;51.090;-115.340;2023-01-26T01:41:01;87420.40;;;-1.80
74539;BMP180;66042;51.090;-115.340;2023-01-26T01:43:28;87412.00;;;-1.78
74539;BMP180;66042;51.090;-115.340;2023-01-26T01:45:56;87403.80;;;-1.72
74539;BMP180;66042;51.090;-115.340;2023-01-26T01:48:43;87393.20;;;-1.72
74539;BMP180;66042;51.090;-115.340;2023-01-26T01:51:37;87395.80;;;-1.70
74539;BMP180;66042;51.090;-115.340;2023-01-26T01:54:14;87386.00;;;-1.80
74539;BMP180;66042;51.090;-115.340;2023-01-26T01:56:46;87378.80;;;-1.80
74539;BMP180;66042;51.090;-115.340;2023-01-26T01:59:16;87374.60;;;-1.84
74539;BMP180;66042;51.090;-115.340;2023-01-26T02:01:47;87371.20;;;-1.88
74539;BMP180;66042;51.090;-115.340;2023-01-26T02:04:16;87371.80;;;-1.90
74539;BMP180;66042;51.090;-115.340;2023-01-26T02:06:58;87362.80;;;-1.90
74539;BMP180;66042;51.090;-115.340;2023-01-26T02:09:32;87352.00;;;-2.00
74539;BMP180;66042;51.090;-115.340;2023-01-26T02:12:23;87351.40;;;-2.02
74539;BMP180;66042;51.090;-115.340;2023-01-26T02:14:53;87360.20;;;-2.10
74539;BMP180;66042;51.090;-115.340;2023-01-26T02:17:20;87359.60;;;-2.20
74539;BMP180;66042;51.090;-115.340;2023-01-26T02:28:27;87351.60;;;-2.40
74539;BMP180;66042;51.090;-115.340;2023-01-26T02:30:55;87345.80;;;-2.50
74539;BMP180;66042;51.090;-115.340;2023-01-26T02:33:31;87350.40;;;-2.60
74539;BMP180;66042;51.090;-115.340;2023-01-26T02:35:59;87345.40;;;-2.60
74539;BMP180;66042;51.090;-115.340;2023-01-26T02:41:39;87348.60;;;-2.80
74539;BMP180;66042;51.090;-115.340;2023-01-26T02:44:27;87355.00;;;-2.80
74539;BMP180;66042;51.090;-115.340;2023-01-26T02:46:55;87357.00;;;-2.80
74539;BMP180;66042;51.090;-115.340;2023-01-26T02:49:22;87361.60;;;-2.80
74539;BMP180;66042;51.090;-115.340;2023-01-26T02:52:08;87355.80;;;-2.90
74539;BMP180;66042;51.090;-115.340;2023-01-26T02:54:35;87348.40;;;-2.90
74539;BMP180;66042;51.090;-115.340;2023-01-26T02:57:20;87350.20;;;-2.90
74539;BMP180;66042;51.090;-115.340;2023-01-26T02:59:47;87357.80;;;-3.00
74539;BMP180;66042;51.090;-115.340;2023-01-26T03:02:14;87348.40;;;-3.00
74539;BMP180;66042;51.090;-115.340;2023-01-26T03:04:41;87348.60;;;-3.00
74539;BMP180;66042;51.090;-115.340;2023-01-26T03:07:09;87342.40;;;-3.00
74539;BMP180;66042;51.090;-115.340;2023-01-26T03:09:36;87340.20;;;-3.00
74539;BMP180;66042;51.090;-115.340;2023-01-26T03:12:03;87343.80;;;-3.00
74539;BMP180;66042;51.090;-115.340;2023-01-26T03:14:30;87344.00;;;-2.90
74539;BMP180;66042;51.090;-115.340;2023-01-26T03:16:59;87340.80;;;-2.90
74539;BMP180;66042;51.090;-115.340;2023-01-26T03:19:27;87325.00;;;-2.80
74539;BMP180;66042;51.090;-115.340;2023-01-26T03:22:12;87314.80;;;-2.76
74539;BMP180;66042;51.090;-115.340;2023-01-26T03:24:57;87316.80;;;-2.70
74539;BMP180;66042;51.090;-115.340;2023-01-26T03:27:46;87316.40;;;-2.60
74539;BMP180;66042;51.090;-115.340;2023-01-26T03:30:18;87312.60;;;-2.54
74539;BMP180;66042;51.090;-115.340;2023-01-26T03:32:45;87308.20;;;-2.40
74539;BMP180;66042;51.090;-115.340;2023-01-26T03:35:12;87308.20;;;-2.40
74539;BMP180;66042;51.090;-115.340;2023-01-26T03:37:42;87299.60;;;-2.36
74539;BMP180;66042;51.090;-115.340;2023-01-26T03:40:11;87299.00;;;-2.40
74539;BMP180;66042;51.090;-115.340;2023-01-26T03:42:57;87292.40;;;-2.30
74539;BMP180;66042;51.090;-115.340;2023-01-26T03:45:42;87293.00;;;-2.20
74539;BMP180;66042;51.090;-115.340;2023-01-26T03:48:28;87296.40;;;-2.10
74539;BMP180;66042;51.090;-115.340;2023-01-26T03:51:15;87288.40;;;-2.10
74539;BMP180;66042;51.090;-115.340;2023-01-26T03:54:00;87285.00;;;-2.00
74539;BMP180;66042;51.090;-115.340;2023-01-26T03:56:46;87274.40;;;-2.00
74539;BMP180;66042;51.090;-115.340;2023-01-26T03:59:13;87269.20;;;-1.90
74539;BMP180;66042;51.090;-115.340;2023-01-26T04:01:46;87259.00;;;-1.90
74539;BMP180;66042;51.090;-115.340;2023-01-26T04:04:31;87255.40;;;-1.80
74539;BMP180;66042;51.090;-115.340;2023-01-26T04:07:18;87244.40;;;-1.80
74539;BMP180;66042;51.090;-115.340;2023-01-26T04:10:03;87239.00;;;-1.80
74539;BMP180;66042;51.090;-115.340;2023-01-26T04:12:30;87245.20;;;-1.80
74539;BMP180;66042;51.090;-115.340;2023-01-26T04:14:57;87256.60;;;-1.76
74539;BMP180;66042;51.090;-115.340;2023-01-26T04:17:42;87239.20;;;-1.70
74539;BMP180;66042;51.090;-115.340;2023-01-26T04:20:27;87241.80;;;-1.80
74539;BMP180;66042;51.090;-115.340;2023-01-26T04:23:22;87233.00;;;-1.80
74539;BMP180;66042;51.090;-115.340;2023-01-26T04:25:49;87226.60;;;-1.80
74539;BMP180;66042;51.090;-115.340;2023-01-26T04:28:16;87231.20;;;-1.80
74539;BMP180;66042;51.090;-115.340;2023-01-26T04:30:43;87227.40;;;-1.80
74539;BMP180;66042;51.090;-115.340;2023-01-26T04:33:10;87230.20;;;-1.80
74539;BMP180;66042;51.090;-115.340;2023-01-26T04:35:37;87234.60;;;-1.70
74539;BMP180;66042;51.090;-115.340;2023-01-26T04:38:04;87239.80;;;-1.70
74539;BMP180;66042;51.090;-115.340;2023-01-26T04:40:31;87230.20;;;-1.70
74539;BMP180;66042;51.090;-115.340;2023-01-26T04:42:58;87239.00;;;-1.70
74539;BMP180;66042;51.090;-115.340;2023-01-26T04:45:25;87238.20;;;-1.60
74539;BMP180;66042;51.090;-115.340;2023-01-26T04:47:53;87233.60;;;-1.56
74539;BMP180;66042;51.090;-115.340;2023-01-26T04:50:19;87235.20;;;-1.50
74539;BMP180;66042;51.090;-115.340;2023-01-26T04:52:46;87223.20;;;-1.42
74539;BMP180;66042;51.090;-115.340;2023-01-26T04:55:13;87224.20;;;-1.40
74539;BMP180;66042;51.090;-115.340;2023-01-26T04:57:40;87227.20;;;-1.48
74539;BMP180;66042;51.090;-115.340;2023-01-26T05:00:08;87223.60;;;-1.42
74539;BMP180;66042;51.090;-115.340;2023-01-26T05:02:37;87207.20;;;-1.48
74539;BMP180;66042;51.090;-115.340;2023-01-26T05:05:05;87209.80;;;-1.50
74539;BMP180;66042;51.090;-115.340;2023-01-26T05:07:32;87201.80;;;-1.50
74539;BMP180;66042;51.090;-115.340;2023-01-26T05:09:59;87198.20;;;-1.60
74539;BMP180;66042;51.090;-115.340;2023-01-26T05:12:26;87201.80;;;-1.60
74539;BMP180;66042;51.090;-115.340;2023-01-26T05:14:59;87209.80;;;-1.60
74539;BMP180;66042;51.090;-115.340;2023-01-26T05:17:26;87211.80;;;-1.66
74539;BMP180;66042;51.090;-115.340;2023-01-26T05:19:53;87192.20;;;-1.70
74539;BMP180;66042;51.090;-115.340;2023-01-26T05:22:21;87209.60;;;-1.70
74539;BMP180;66042;51.090;-115.340;2023-01-26T05:24:48;87216.40;;;-1.80
74539;BMP180;66042;51.090;-115.340;2023-01-26T05:27:15;87204.00;;;-1.80
74539;BMP180;66042;51.090;-115.340;2023-01-26T05:29:49;87194.00;;;-1.80
74539;BMP180;66042;51.090;-115.340;2023-01-26T05:32:17;87205.60;;;-1.80
74539;BMP180;66042;51.090;-115.340;2023-01-26T05:34:45;87195.20;;;-1.90
74539;BMP180;66042;51.090;-115.340;2023-01-26T05:37:13;87188.40;;;-1.90
74539;BMP180;66042;51.090;-115.340;2023-01-26T05:39:40;87175.40;;;-2.00
74539;BMP180;66042;51.090;-115.340;2023-01-26T05:42:07;87172.80;;;-2.00
74539;BMP180;66042;51.090;-115.340;2023-01-26T05:44:34;87177.40;;;-2.10
74539;BMP180;66042;51.090;-115.340;2023-01-26T05:47:00;87172.40;;;-2.12
74539;BMP180;66042;51.090;-115.340;2023-01-26T05:49:28;87164.60;;;-2.20
74539;BMP180;66042;51.090;-115.340;2023-01-26T05:51:55;87170.40;;;-2.30
74539;BMP180;66042;51.090;-115.340;2023-01-26T05:54:24;87168.40;;;-2.30
74539;BMP180;66042;51.090;-115.340;2023-01-26T05:56:50;87174.20;;;-2.30
74539;BMP180;66042;51.090;-115.340;2023-01-26T05:59:22;87171.40;;;-2.30
74539;BMP180;66042;51.090;-115.340;2023-01-26T06:01:50;87162.20;;;-2.30
74539;BMP180;66042;51.090;-115.340;2023-01-26T06:04:17;87164.40;;;-2.20
74539;BMP180;66042;51.090;-115.340;2023-01-26T06:06:43;87162.40;;;-2.20
74539;BMP180;66042;51.090;-115.340;2023-01-26T06:09:10;87156.40;;;-2.10
74539;BMP180;66042;51.090;-115.340;2023-01-26T06:11:38;87153.20;;;-2.04
74539;BMP180;66042;51.090;-115.340;2023-01-26T06:14:04;87154.60;;;-2.00
74539;BMP180;66042;51.090;-115.340;2023-01-26T06:16:32;87148.60;;;-2.00
74539;BMP180;66042;51.090;-115.340;2023-01-26T06:18:59;87151.80;;;-2.00
74539;BMP180;66042;51.090;-115.340;2023-01-26T06:21:26;87151.60;;;-1.94
74539;BMP180;66042;51.090;-115.340;2023-01-26T06:23:53;87146.40;;;-2.00
74539;BMP180;66042;51.090;-115.340;2023-01-26T06:26:20;87146.80;;;-1.98
74539;BMP180;66042;51.090;-115.340;2023-01-26T06:28:53;87137.80;;;-2.00
74539;BMP180;66042;51.090;-115.340;2023-01-26T06:31:21;87135.00;;;-2.00
74539;BMP180;66042;51.090;-115.340;2023-01-26T06:33:54;87125.00;;;-2.00
74539;BMP180;66042;51.090;-115.340;2023-01-26T06:36:21;87130.80;;;-2.10
74539;BMP180;66042;51.090;-115.340;2023-01-26T06:38:51;87132.60;;;-2.10
74539;BMP180;66042;51.090;-115.340;2023-01-26T06:41:21;87133.00;;;-2.16
74539;BMP180;66042;51.090;-115.340;2023-01-26T06:43:49;87112.80;;;-2.20
74539;BMP180;66042;51.090;-115.340;2023-01-26T06:46:16;87113.40;;;-2.20
74539;BMP180;66042;51.090;-115.340;2023-01-26T06:48:44;87103.80;;;-2.30
74539;BMP180;66042;51.090;-115.340;2023-01-26T06:53:52;87100.60;;;-2.30
74539;BMP180;66042;51.090;-115.340;2023-01-26T06:56:21;87098.80;;;-2.30
74539;BMP180;66042;51.090;-115.340;2023-01-26T06:58:49;87088.00;;;-2.36
74539;BMP180;66042;51.090;-115.340;2023-01-26T07:01:22;87079.20;;;-2.40
74539;BMP180;66042;51.090;-115.340;2023-01-26T07:03:52;87081.80;;;-2.40
74539;BMP180;66042;51.090;-115.340;2023-01-26T07:06:20;87079.80;;;-2.40
74539;BMP180;66042;51.090;-115.340;2023-01-26T07:08:47;87081.00;;;-2.40
74539;BMP180;66042;51.090;-115.340;2023-01-26T07:11:14;87065.60;;;-2.40
74539;BMP180;66042;51.090;-115.340;2023-01-26T07:13:42;87063.60;;;-2.30
74539;BMP180;66042;51.090;-115.340;2023-01-26T07:16:15;87063.60;;;-2.24
74539;BMP180;66042;51.090;-115.340;2023-01-26T07:18:42;87057.20;;;-2.12
74539;BMP180;66042;51.090;-115.340;2023-01-26T07:21:16;87071.00;;;-2.10
74539;BMP180;66042;51.090;-115.340;2023-01-26T07:23:47;87072.00;;;-2.00
74539;BMP180;66042;51.090;-115.340;2023-01-26T07:26:14;87075.00;;;-1.90
74539;BMP180;66042;51.090;-115.340;2023-01-26T07:28:41;87074.60;;;-1.90
74539;BMP180;66042;51.090;-115.340;2023-01-26T07:31:11;87080.40;;;-1.80
74539;BMP180;66042;51.090;-115.340;2023-01-26T07:33:38;87074.20;;;-1.78
74539;BMP180;66042;51.090;-115.340;2023-01-26T07:36:05;87063.20;;;-1.60
74539;BMP180;66042;51.090;-115.340;2023-01-26T07:38:33;87070.80;;;-1.60
74539;BMP180;66042;51.090;-115.340;2023-01-26T07:41:10;87061.80;;;-1.50
74539;BMP180;66042;51.090;-115.340;2023-01-26T07:43:38;87060.80;;;-1.40
74539;BMP180;66042;51.090;-115.340;2023-01-26T07:46:06;87057.80;;;-1.32
74539;BMP180;66042;51.090;-115.340;2023-01-26T07:48:35;87047.00;;;-1.20
74539;BMP180;66042;51.090;-115.340;2023-01-26T07:51:04;87048.60;;;-1.12
74539;BMP180;66042;51.090;-115.340;2023-01-26T07:53:31;87041.40;;;-1.10
74539;BMP180;66042;51.090;-115.340;2023-01-26T07:56:12;87034.60;;;-1.04
74539;BMP180;66042;51.090;-115.340;2023-01-26T07:58:40;87044.20;;;-1.00
74539;BMP180;66042;51.090;-115.340;2023-01-26T08:01:14;87041.40;;;-1.02
74539;BMP180;66042;51.090;-115.340;2023-01-26T08:03:42;87046.00;;;-1.00
74539;BMP180;66042;51.090;-115.340;2023-01-26T08:06:11;87044.20;;;-1.00
74539;BMP180;66042;51.090;-115.340;2023-01-26T08:08:39;87043.80;;;-1.00
74539;BMP180;66042;51.090;-115.340;2023-01-26T08:11:08;87028.60;;;-0.90
74539;BMP180;66042;51.090;-115.340;2023-01-26T08:13:36;87031.20;;;-0.80
74539;BMP180;66042;51.090;-115.340;2023-01-26T08:16:09;87024.40;;;-0.72
74539;BMP180;66042;51.090;-115.340;2023-01-26T08:18:42;87019.00;;;-0.70
74539;BMP180;66042;51.090;-115.340;2023-01-26T08:21:12;87029.80;;;-0.60
74539;BMP180;66042;51.090;-115.340;2023-01-26T08:23:39;87011.80;;;-0.54
74539;BMP180;66042;51.090;-115.340;2023-01-26T08:26:12;87022.00;;;-0.50
74539;BMP180;66042;51.090;-115.340;2023-01-26T08:28:40;87026.20;;;-0.40
74539;BMP180;66042;51.090;-115.340;2023-01-26T08:31:12;87013.20;;;-0.30
74539;BMP180;66042;51.090;-115.340;2023-01-26T08:33:41;87005.00;;;-0.20
74539;BMP180;66042;51.090;-115.340;2023-01-26T08:36:12;87003.40;;;-0.04
74539;BMP180;66042;51.090;-115.340;2023-01-26T08:38:40;86996.40;;;0.10
74539;BMP180;66042;51.090;-115.340;2023-01-26T08:41:09;86995.40;;;0.20
74539;BMP180;66042;51.090;-115.340;2023-01-26T08:43:36;86985.20;;;0.30
74539;BMP180;66042;51.090;-115.340;2023-01-26T08:46:03;86990.20;;;0.30
74539;BMP180;66042;51.090;-115.340;2023-01-26T08:48:30;86975.80;;;0.30
74539;BMP180;66042;51.090;-115.340;2023-01-26T08:51:02;86983.20;;;0.40
74539;BMP180;66042;51.090;-115.340;2023-01-26T08:53:31;86973.40;;;0.30
74539;BMP180;66042;51.090;-115.340;2023-01-26T08:56:06;86974.40;;;0.30
74539;BMP180;66042;51.090;-115.340;2023-01-26T08:58:34;86963.20;;;0.30
74539;BMP180;66042;51.090;-115.340;2023-01-26T09:01:11;86957.80;;;0.30
74539;BMP180;66042;51.090;-115.340;2023-01-26T09:03:39;86964.80;;;0.30
74539;BMP180;66042;51.090;-115.340;2023-01-26T09:06:08;86969.40;;;0.30
74539;BMP180;66042;51.090;-115.340;2023-01-26T09:08:36;86963.40;;;0.30
74539;BMP180;66042;51.090;-115.340;2023-01-26T09:11:06;86971.40;;;0.30
74539;BMP180;66042;51.090;-115.340;2023-01-26T09:13:33;86957.60;;;0.20
74539;BMP180;66042;51.090;-115.340;2023-01-26T09:16:18;86957.80;;;0.20
74539;BMP180;66042;51.090;-115.340;2023-01-26T09:18:50;86952.60;;;0.10
74539;BMP180;66042;51.090;-115.340;2023-01-26T09:21:17;86936.80;;;0.02
74539;BMP180;66042;51.090;-115.340;2023-01-26T09:23:44;86955.80;;;0.00
74539;BMP180;66042;51.090;-115.340;2023-01-26T09:26:12;86952.00;;;-0.06
74539;BMP180;66042;51.090;-115.340;2023-01-26T09:28:39;86957.60;;;-0.10
74539;BMP180;66042;51.090;-115.340;2023-01-26T09:31:11;86962.60;;;-0.16
74539;BMP180;66042;51.090;-115.340;2023-01-26T09:33:38;86949.00;;;-0.20
74539;BMP180;66042;51.090;-115.340;2023-01-26T09:36:08;86946.40;;;-0.22
74539;BMP180;66042;51.090;-115.340;2023-01-26T09:38:36;86926.40;;;-0.30
74539;BMP180;66042;51.090;-115.340;2023-01-26T09:44:17;86924.20;;;-0.30
74539;BMP180;66042;51.090;-115.340;2023-01-26T09:47:04;86923.40;;;-0.34
74539;BMP180;66042;51.090;-115.340;2023-01-26T09:50:18;86925.20;;;-0.40
74539;BMP180;66042;51.090;-115.340;2023-01-26T09:53:20;86917.20;;;-0.40
74539;BMP180;66042;51.090;-115.340;2023-01-26T09:55:48;86924.40;;;-0.40
74539;BMP180;66042;51.090;-115.340;2023-01-26T09:58:38;86911.20;;;-0.30
74539;BMP180;66042;51.090;-115.340;2023-01-26T10:01:19;86899.00;;;-0.30
74539;BMP180;66042;51.090;-115.340;2023-01-26T10:04:12;86900.60;;;-0.20
74539;BMP180;66042;51.090;-115.340;2023-01-26T10:06:40;86896.00;;;-0.10
74539;BMP180;66042;51.090;-115.340;2023-01-26T10:09:21;86903.20;;;-0.10
74539;BMP180;66042;51.090;-115.340;2023-01-26T10:12:28;86900.40;;;-0.10
74539;BMP180;66042;51.090;-115.340;2023-01-26T10:15:23;86911.60;;;-0.08
74539;BMP180;66042;51.090;-115.340;2023-01-26T10:17:54;86914.40;;;0.00
74539;BMP180;66042;51.090;-115.340;2023-01-26T10:20:32;86909.80;;;0.00
74539;BMP180;66042;51.090;-115.340;2023-01-26T10:23:12;86923.60;;;0.10
74539;BMP180;66042;51.090;-115.340;2023-01-26T10:25:43;86936.40;;;0.10
74539;BMP180;66042;51.090;-115.340;2023-01-26T10:28:32;86925.80;;;0.20
74539;BMP180;66042;51.090;-115.340;2023-01-26T10:31:04;86915.80;;;0.20
74539;BMP180;66042;51.090;-115.340;2023-01-26T10:33:35;86914.80;;;0.20
74539;BMP180;66042;51.090;-115.340;2023-01-26T10:36:06;86914.40;;;0.20
74539;BMP180;66042;51.090;-115.340;2023-01-26T10:46:41;86868.80;;;0.20
74539;BMP180;66042;51.090;-115.340;2023-01-26T10:51:41;86849.00;;;0.20
74539;BMP180;66042;51.090;-115.340;2023-01-26T10:54:30;86843.20;;;0.12
74539;BMP180;66042;51.090;-115.340;2023-01-26T10:57:29;86829.20;;;0.10
74539;BMP180;66042;51.090;-115.340;2023-01-26T11:00:52;86825.80;;;0.10
74539;BMP180;66042;51.090;-115.340;2023-01-26T11:05:40;86797.20;;;0.10
74539;BMP180;66042;51.090;-115.340;2023-01-26T11:08:33;86790.40;;;0.16
74539;BMP180;66042;51.090;-115.340;2023-01-26T11:11:02;86772.00;;;0.20
74539;BMP180;66042;51.090;-115.340;2023-01-26T11:13:30;86770.00;;;0.20
74539;BMP180;66042;51.090;-115.340;2023-01-26T11:16:19;86761.60;;;0.20
74539;BMP180;66042;51.090;-115.340;2023-01-26T11:40:31;86747.20;;;0.30
74539;BMP180;66042;51.090;-115.340;2023-01-26T11:49:36;86736.60;;;0.60
74539;BMP180;66042;51.090;-115.340;2023-01-26T11:53:06;86736.20;;;0.70
74539;BMP180;66042;51.090;-115.340;2023-01-26T11:58:13;86717.40;;;0.90
74539;BMP180;66042;51.090;-115.340;2023-01-26T12:00:55;86719.20;;;1.10
74539;BMP180;66042;51.090;-115.340;2023-01-26T12:06:07;86699.60;;;1.30
74539;BMP180;66042;51.090;-115.340;2023-01-26T12:09:02;86708.40;;;1.30
74539;BMP180;66042;51.090;-115.340;2023-01-26T12:23:22;86705.00;;;1.60
74539;BMP180;66042;51.090;-115.340;2023-01-26T12:26:14;86690.80;;;1.60
74539;BMP180;66042;51.090;-115.340;2023-01-26T12:34:13;86688.40;;;1.70
74539;BMP180;66042;51.090;-115.340;2023-01-26T12:37:20;86688.60;;;1.80
74539;BMP180;66042;51.090;-115.340;2023-01-26T12:43:03;86682.80;;;1.90
74539;BMP180;66042;51.090;-115.340;2023-01-26T12:45:41;86674.40;;;2.00
74539;BMP180;66042;51.090;-115.340;2023-01-26T12:48:21;86661.20;;;2.02
74539;BMP180;66042;51.090;-115.340;2023-01-26T12:51:05;86645.40;;;2.04
74539;BMP180;66042;51.090;-115.340;2023-01-26T12:54:00;86646.00;;;2.00
74539;BMP180;66042;51.090;-115.340;2023-01-26T12:56:39;86629.40;;;2.00
74539;BMP180;66042;51.090;-115.340;2023-01-26T12:59:27;86637.40;;;2.00
74539;BMP180;66042;51.090;-115.340;2023-01-26T13:01:55;86643.80;;;2.00
74539;BMP180;66042;51.090;-115.340;2023-01-26T13:04:22;86636.80;;;2.00
74539;BMP180;66042;51.090;-115.340;2023-01-26T13:07:35;86631.80;;;2.00
74539;BMP180;66042;51.090;-115.340;2023-01-26T13:16:31;86637.80;;;2.10
74539;BMP180;66042;51.090;-115.340;2023-01-26T13:19:01;86625.00;;;2.24
74539;BMP180;66042;51.090;-115.340;2023-01-26T13:26:48;86640.00;;;2.62
74539;BMP180;66042;51.090;-115.340;2023-01-26T13:29:26;86646.80;;;2.80
74539;BMP180;66042;51.090;-115.340;2023-01-26T13:34:50;86644.40;;;2.80
74539;BMP180;66042;51.090;-115.340;2023-01-26T13:40:41;86649.80;;;2.90
74539;BMP180;66042;51.090;-115.340;2023-01-26T13:43:33;86663.80;;;2.90
74539;BMP180;66042;51.090;-115.340;2023-01-26T13:48:54;86672.80;;;3.08
74539;BMP180;66042;51.090;-115.340;2023-01-26T13:51:30;86675.60;;;3.10
74539;BMP180;66042;51.090;-115.340;2023-01-26T13:54:03;86671.80;;;3.10
74539;BMP180;66042;51.090;-115.340;2023-01-26T13:56:37;86682.80;;;3.20
74539;BMP180;66042;51.090;-115.340;2023-01-26T13:59:15;86681.80;;;3.20
74539;BMP180;66042;51.090;-115.340;2023-01-26T14:01:51;86694.60;;;3.20
74539;BMP180;66042;51.090;-115.340;2023-01-26T14:04:26;86702.60;;;3.18
74539;BMP180;66042;51.090;-115.340;2023-01-26T14:07:06;86702.00;;;3.14
74539;BMP180;66042;51.090;-115.340;2023-01-26T14:09:50;86696.00;;;3.10
74539;BMP180;66042;51.090;-115.340;2023-01-26T14:12:34;86694.00;;;3.04
74539;BMP180;66042;51.090;-115.340;2023-01-26T14:15:05;86689.80;;;3.00
74539;BMP180;66042;51.090;-115.340;2023-01-26T14:17:45;86678.00;;;2.90
74539;BMP180;66042;51.090;-115.340;2023-01-26T14:20:39;86686.20;;;2.80
74539;BMP180;66042;51.090;-115.340;2023-01-26T14:23:17;86670.60;;;2.76
74539;BMP180;66042;51.090;-115.340;2023-01-26T14:25:57;86680.40;;;2.70
74539;BMP180;66042;51.090;-115.340;2023-01-26T14:28:40;86678.00;;;2.60
74539;BMP180;66042;51.090;-115.340;2023-01-26T14:31:20;86672.00;;;2.68
74539;BMP180;66042;51.090;-115.340;2023-01-26T14:33:51;86681.00;;;2.60
74539;BMP180;66042;51.090;-115.340;2023-01-26T14:36:25;86681.40;;;2.60
74539;BMP180;66042;51.090;-115.340;2023-01-26T14:38:55;86664.80;;;2.50
74539;BMP180;66042;51.090;-115.340;2023-01-26T14:41:31;86667.60;;;2.48
74539;BMP180;66042;51.090;-115.340;2023-01-26T14:44:00;86656.00;;;2.40
74539;BMP180;66042;51.090;-115.340;2023-01-26T14:49:18;86654.80;;;2.14
74539;BMP180;66042;51.090;-115.340;2023-01-26T14:51:55;86655.60;;;2.10
74539;BMP180;66042;51.090;-115.340;2023-01-26T14:54:31;86643.80;;;2.00
74539;BMP180;66042;51.090;-115.340;2023-01-26T14:57:05;86644.40;;;1.90
74539;BMP180;66042;51.090;-115.340;2023-01-26T14:59:39;86646.00;;;2.00
74539;BMP180;66042;51.090;-115.340;2023-01-26T15:02:23;86644.80;;;2.00
74539;BMP180;66042;51.090;-115.340;2023-01-26T15:05:01;86632.60;;;2.00
74539;BMP180;66042;51.090;-115.340;2023-01-26T15:07:50;86636.40;;;2.10
74539;BMP180;66042;51.090;-115.340;2023-01-26T15:10:41;86637.40;;;2.20
74539;BMP180;66042;51.090;-115.340;2023-01-26T15:15:47;86649.20;;;2.30
74539;BMP180;66042;51.090;-115.340;2023-01-26T15:18:21;86630.40;;;2.40
74539;BMP180;66042;51.090;-115.340;2023-01-26T15:20:57;86623.40;;;2.50
74539;BMP180;66042;51.090;-115.340;2023-01-26T15:23:33;86642.40;;;2.58
74539;BMP180;66042;51.090;-115.340;2023-01-26T15:26:29;86611.20;;;2.70
74539;BMP180;66042;51.090;-115.340;2023-01-26T15:28:59;86621.80;;;2.80
74539;BMP180;66042;51.090;-115.340;2023-01-26T15:31:39;86629.00;;;2.90
74539;BMP180;66042;51.090;-115.340;2023-01-26T15:34:32;86620.80;;;3.00
74539;BMP180;66042;51.090;-115.340;2023-01-26T15:37:26;86602.40;;;3.10
74539;BMP180;66042;51.090;-115.340;2023-01-26T15:39:49;86594.80;;;3.14
74539;BMP180;66042;51.090;-115.340;2023-01-26T15:42:22;86598.20;;;3.20
74539;BMP180;66042;51.090;-115.340;2023-01-26T15:44:52;86582.00;;;3.22
74539;BMP180;66042;51.090;-115.340;2023-01-26T15:47:19;86593.40;;;3.30
74539;BMP180;66042;51.090;-115.340;2023-01-26T15:49:46;86591.80;;;3.50
74539;BMP180;66042;51.090;-115.340;2023-01-26T15:52:15;86590.20;;;3.50
74539;BMP180;66042;51.090;-115.340;2023-01-26T15:54:43;86589.20;;;3.60
74539;BMP180;66042;51.090;-115.340;2023-01-26T15:57:11;86595.40;;;3.70
74539;BMP180;66042;51.090;-115.340;2023-01-26T15:59:41;86600.80;;;3.70
74539;BMP180;66042;51.090;-115.340;2023-01-26T16:02:19;86587.80;;;3.80